sensor_id;sensor_type;location;lat;lon;timestamp;P1;durP1;ratioP1;P2;durP2;ratioP2
17169;SDS011;8700;48.222;16.342;2023-05-10T00:03:07;7.65;;;6.90;;
17169;SDS011;8700;48.222;16.342;2023-05-10T00:06:28;7.43;;;6.72;;
17169;SDS011;8700;48.222;16.342;2023-05-10T00:09:50;7.22;;;6.63;;
17169;SDS011;8700;48.222;16.342;2023-05-10T00:13:12;6.88;;;6.32;;
17169;SDS011;8700;48.222;16.342;2023-05-10T00:16:34;7.13;;;6.47;;
17169;SDS011;8700;48.222;16.342;2023-05-10T00:19:56;7.65;;;7.15;;
17169;SDS011;8700;48.222;16.342;2023-05-10T00:23:17;8.07;;;7.38;;
17169;SDS011;8700;48.222;16.342;2023-05-10T00:26:39;7.63;;;7.03;;
17169;SDS011;8700;48.222;16.342;2023-05-10T00:30:01;7.25;;;6.65;;
17169;SDS011;8700;48.222;16.342;2023-05-10T00:33:23;8.02;;;6.63;;
17169;SDS011;8700;48.222;16.342;2023-05-10T00:36:45;7.00;;;6.40;;
17169;SDS011;8700;48.222;16.342;2023-05-10T00:40:07;6.53;;;6.03;;
17169;SDS011;8700;48.222;16.342;2023-05-10T00:43:28;7.47;;;6.88;;
17169;SDS011;8700;48.222;16.342;2023-05-10T00:46:50;8.05;;;7.35;;
17169;SDS011;8700;48.222;16.342;2023-05-10T00:50:11;8.20;;;7.20;;
17169;SDS011;8700;48.222;16.342;2023-05-10T00:53:35;8.10;;;7.50;;
17169;SDS011;8700;48.222;16.342;2023-05-10T00:56:57;7.30;;;6.65;;
17169;SDS011;8700;48.222;16.342;2023-05-10T01:00:18;8.00;;;7.32;;
17169;SDS011;8700;48.222;16.342;2023-05-10T01:03:40;7.50;;;6.90;;
17169;SDS011;8700;48.222;16.342;2023-05-10T01:07:02;6.95;;;6.35;;
17169;SDS011;8700;48.222;16.342;2023-05-10T01:10:24;8.85;;;6.70;;
17169;SDS011;8700;48.222;16.342;2023-05-10T01:13:50;7.15;;;6.65;;
17169;SDS011;8700;48.222;16.342;2023-05-10T01:17:15;7.07;;;6.47;;
17169;SDS011;8700;48.222;16.342;2023-05-10T01:20:39;7.85;;;7.25;;
17169;SDS011;8700;48.222;16.342;2023-05-10T01:24:17;7.57;;;6.97;;
17169;SDS011;8700;48.222;16.342;2023-05-10T01:32:06;8.13;;;7.37;;
17169;SDS011;8700;48.222;16.342;2023-05-10T01:35:47;7.18;;;6.57;;
17169;SDS011;8700;48.222;16.342;2023-05-10T01:39:15;8.45;;;7.75;;
17169;SDS011;8700;48.222;16.342;2023-05-10T01:42:43;7.20;;;6.70;;
17169;SDS011;8700;48.222;16.342;2023-05-10T01:46:11;8.57;;;7.87;;
17169;SDS011;8700;48.222;16.342;2023-05-10T01:49:41;7.95;;;6.97;;
17169;SDS011;8700;48.222;16.342;2023-05-10T01:53:07;7.60;;;6.90;;
17169;SDS011;8700;48.222;16.342;2023-05-10T01:56:30;7.83;;;7.23;;
17169;SDS011;8700;48.222;16.342;2023-05-10T01:59:53;7.95;;;7.35;;
17169;SDS011;8700;48.222;16.342;2023-05-10T02:03:18;7.37;;;6.87;;
17169;SDS011;8700;48.222;16.342;2023-05-10T02:06:45;9.80;;;8.13;;
17169;SDS011;8700;48.222;16.342;2023-05-10T02:10:09;8.98;;;8.07;;
17169;SDS011;8700;48.222;16.342;2023-05-10T02:13:31;7.82;;;7.13;;
17169;SDS011;8700;48.222;16.342;2023-05-10T02:16:55;7.80;;;7.10;;
17169;SDS011;8700;48.222;16.342;2023-05-10T02:20:17;7.97;;;7.28;;
17169;SDS011;8700;48.222;16.342;2023-05-10T02:23:42;8.57;;;7.88;;
17169;SDS011;8700;48.222;16.342;2023-05-10T02:27:04;8.98;;;7.70;;
17169;SDS011;8700;48.222;16.342;2023-05-10T02:30:26;8.85;;;8.07;;
17169;SDS011;8700;48.222;16.342;2023-05-10T02:33:49;7.75;;;7.15;;
17169;SDS011;8700;48.222;16.342;2023-05-10T02:37:11;9.18;;;7.47;;
17169;SDS011;8700;48.222;16.342;2023-05-10T02:40:36;7.53;;;6.93;;
17169;SDS011;8700;48.222;16.342;2023-05-10T02:44:03;8.40;;;7.70;;
17169;SDS011;8700;48.222;16.342;2023-05-10T02:47:28;8.17;;;7.47;;
17169;SDS011;8700;48.222;16.342;2023-05-10T02:50:50;8.73;;;7.77;;
17169;SDS011;8700;48.222;16.342;2023-05-10T02:54:15;9.23;;;8.43;;
17169;SDS011;8700;48.222;16.342;2023-05-10T02:57:43;8.93;;;8.15;;
17169;SDS011;8700;48.222;16.342;2023-05-10T03:01:08;8.60;;;7.90;;
17169;SDS011;8700;48.222;16.342;2023-05-10T03:04:30;8.83;;;8.03;;
17169;SDS011;8700;48.222;16.342;2023-05-10T03:07:51;8.90;;;8.20;;
17169;SDS011;8700;48.222;16.342;2023-05-10T03:11:27;8.32;;;7.63;;
17169;SDS011;8700;48.222;16.342;2023-05-10T03:14:59;8.68;;;7.93;;
17169;SDS011;8700;48.222;16.342;2023-05-10T03:18:27;8.63;;;8.03;;
17169;SDS011;8700;48.222;16.342;2023-05-10T03:21:54;8.70;;;7.90;;
17169;SDS011;8700;48.222;16.342;2023-05-10T03:25:19;9.32;;;8.63;;
17169;SDS011;8700;48.222;16.342;2023-05-10T03:28:42;10.00;;;9.13;;
17169;SDS011;8700;48.222;16.342;2023-05-10T03:32:08;9.20;;;8.40;;
17169;SDS011;8700;48.222;16.342;2023-05-10T03:35:29;9.35;;;8.50;;
17169;SDS011;8700;48.222;16.342;2023-05-10T03:38:50;8.50;;;7.70;;
17169;SDS011;8700;48.222;16.342;2023-05-10T03:42:12;9.80;;;8.80;;
17169;SDS011;8700;48.222;16.342;2023-05-10T03:45:33;9.13;;;8.30;;
17169;SDS011;8700;48.222;16.342;2023-05-10T03:48:58;8.63;;;7.93;;
17169;SDS011;8700;48.222;16.342;2023-05-10T03:52:19;9.47;;;8.67;;
17169;SDS011;8700;48.222;16.342;2023-05-10T03:55:41;8.80;;;7.90;;
17169;SDS011;8700;48.222;16.342;2023-05-10T03:59:02;9.37;;;8.57;;
17169;SDS011;8700;48.222;16.342;2023-05-10T04:02:26;10.37;;;8.60;;
17169;SDS011;8700;48.222;16.342;2023-05-10T04:05:50;10.77;;;9.30;;
17169;SDS011;8700;48.222;16.342;2023-05-10T04:09:19;9.97;;;9.00;;
17169;SDS011;8700;48.222;16.342;2023-05-10T04:12:41;10.03;;;9.03;;
17169;SDS011;8700;48.222;16.342;2023-05-10T04:16:02;10.00;;;9.05;;
17169;SDS011;8700;48.222;16.342;2023-05-10T04:19:24;9.83;;;8.97;;
17169;SDS011;8700;48.222;16.342;2023-05-10T04:22:50;8.97;;;8.17;;
17169;SDS011;8700;48.222;16.342;2023-05-10T04:26:14;9.00;;;8.30;;
17169;SDS011;8700;48.222;16.342;2023-05-10T04:29:36;10.57;;;9.63;;
17169;SDS011;8700;48.222;16.342;2023-05-10T04:32:57;8.82;;;8.13;;
17169;SDS011;8700;48.222;16.342;2023-05-10T04:36:19;10.33;;;9.37;;
17169;SDS011;8700;48.222;16.342;2023-05-10T04:39:41;9.88;;;8.95;;
17169;SDS011;8700;48.222;16.342;2023-05-10T04:43:03;9.63;;;8.68;;
17169;SDS011;8700;48.222;16.342;2023-05-10T04:46:24;11.20;;;10.20;;
17169;SDS011;8700;48.222;16.342;2023-05-10T04:49:45;10.63;;;9.53;;
17169;SDS011;8700;48.222;16.342;2023-05-10T04:53:07;10.15;;;9.20;;
17169;SDS011;8700;48.222;16.342;2023-05-10T04:56:29;10.57;;;9.60;;
17169;SDS011;8700;48.222;16.342;2023-05-10T04:59:51;10.52;;;9.55;;
17169;SDS011;8700;48.222;16.342;2023-05-10T05:03:12;14.60;;;13.07;;
17169;SDS011;8700;48.222;16.342;2023-05-10T05:06:34;11.18;;;10.07;;
17169;SDS011;8700;48.222;16.342;2023-05-10T05:09:55;11.48;;;10.27;;
17169;SDS011;8700;48.222;16.342;2023-05-10T05:13:19;10.63;;;9.55;;
17169;SDS011;8700;48.222;16.342;2023-05-10T05:16:40;10.52;;;9.73;;
17169;SDS011;8700;48.222;16.342;2023-05-10T05:20:02;11.18;;;10.15;;
17169;SDS011;8700;48.222;16.342;2023-05-10T05:23:23;10.20;;;9.30;;
17169;SDS011;8700;48.222;16.342;2023-05-10T05:26:45;10.18;;;9.25;;
17169;SDS011;8700;48.222;16.342;2023-05-10T05:30:10;10.50;;;9.70;;
17169;SDS011;8700;48.222;16.342;2023-05-10T05:33:32;11.88;;;10.65;;
17169;SDS011;8700;48.222;16.342;2023-05-10T05:36:53;10.82;;;9.95;;
17169;SDS011;8700;48.222;16.342;2023-05-10T05:40:16;12.75;;;9.50;;
17169;SDS011;8700;48.222;16.342;2023-05-10T05:43:38;12.30;;;10.73;;
17169;SDS011;8700;48.222;16.342;2023-05-10T05:47:01;9.98;;;8.63;;
17169;SDS011;8700;48.222;16.342;2023-05-10T05:50:22;11.85;;;10.15;;
17169;SDS011;8700;48.222;16.342;2023-05-10T05:53:44;9.73;;;9.02;;
17169;SDS011;8700;48.222;16.342;2023-05-10T05:57:06;10.10;;;9.15;;
17169;SDS011;8700;48.222;16.342;2023-05-10T06:00:27;8.75;;;8.02;;
17169;SDS011;8700;48.222;16.342;2023-05-10T06:03:50;14.10;;;9.68;;
17169;SDS011;8700;48.222;16.342;2023-05-10T06:07:12;13.35;;;9.48;;
17169;SDS011;8700;48.222;16.342;2023-05-10T06:10:33;10.35;;;9.38;;
17169;SDS011;8700;48.222;16.342;2023-05-10T06:13:54;9.60;;;8.70;;
17169;SDS011;8700;48.222;16.342;2023-05-10T06:17:16;9.23;;;8.43;;
17169;SDS011;8700;48.222;16.342;2023-05-10T06:20:38;9.15;;;8.32;;
17169;SDS011;8700;48.222;16.342;2023-05-10T06:24:02;9.35;;;8.48;;
17169;SDS011;8700;48.222;16.342;2023-05-10T06:27:24;10.38;;;9.15;;
17169;SDS011;8700;48.222;16.342;2023-05-10T06:30:46;9.23;;;8.43;;
17169;SDS011;8700;48.222;16.342;2023-05-10T06:34:07;9.88;;;9.07;;
17169;SDS011;8700;48.222;16.342;2023-05-10T06:37:32;10.13;;;9.10;;
17169;SDS011;8700;48.222;16.342;2023-05-10T06:40:54;10.52;;;9.57;;
17169;SDS011;8700;48.222;16.342;2023-05-10T06:44:15;9.73;;;8.73;;
17169;SDS011;8700;48.222;16.342;2023-05-10T06:47:37;9.18;;;8.48;;
17169;SDS011;8700;48.222;16.342;2023-05-10T06:51:00;8.95;;;8.13;;
17169;SDS011;8700;48.222;16.342;2023-05-10T06:54:24;10.05;;;9.15;;
17169;SDS011;8700;48.222;16.342;2023-05-10T06:57:45;10.63;;;9.63;;
17169;SDS011;8700;48.222;16.342;2023-05-10T07:01:07;7.95;;;7.20;;
17169;SDS011;8700;48.222;16.342;2023-05-10T07:04:28;8.90;;;8.20;;
17169;SDS011;8700;48.222;16.342;2023-05-10T07:07:52;8.88;;;8.07;;
17169;SDS011;8700;48.222;16.342;2023-05-10T07:11:15;8.80;;;8.10;;
17169;SDS011;8700;48.222;16.342;2023-05-10T07:14:36;8.52;;;7.82;;
17169;SDS011;8700;48.222;16.342;2023-05-10T07:17:58;8.90;;;8.20;;
17169;SDS011;8700;48.222;16.342;2023-05-10T07:21:19;9.65;;;8.85;;
17169;SDS011;8700;48.222;16.342;2023-05-10T07:24:43;9.98;;;9.05;;
17169;SDS011;8700;48.222;16.342;2023-05-10T07:28:06;11.00;;;9.18;;
17169;SDS011;8700;48.222;16.342;2023-05-10T07:31:27;8.68;;;7.90;;
17169;SDS011;8700;48.222;16.342;2023-05-10T07:34:49;8.32;;;7.72;;
17169;SDS011;8700;48.222;16.342;2023-05-10T07:38:10;8.38;;;7.78;;
17169;SDS011;8700;48.222;16.342;2023-05-10T07:41:32;10.68;;;9.70;;
17169;SDS011;8700;48.222;16.342;2023-05-10T07:44:54;9.48;;;8.68;;
17169;SDS011;8700;48.222;16.342;2023-05-10T07:48:16;9.75;;;8.93;;
17169;SDS011;8700;48.222;16.342;2023-05-10T07:51:38;9.18;;;8.48;;
17169;SDS011;8700;48.222;16.342;2023-05-10T07:54:59;18.13;;;7.93;;
17169;SDS011;8700;48.222;16.342;2023-05-10T07:58:21;8.32;;;7.63;;
17169;SDS011;8700;48.222;16.342;2023-05-10T08:01:43;6.45;;;5.95;;
17169;SDS011;8700;48.222;16.342;2023-05-10T08:05:06;8.35;;;7.72;;
17169;SDS011;8700;48.222;16.342;2023-05-10T08:08:27;7.15;;;6.63;;
17169;SDS011;8700;48.222;16.342;2023-05-10T08:11:49;8.27;;;7.57;;
17169;SDS011;8700;48.222;16.342;2023-05-10T08:15:10;8.77;;;7.97;;
17169;SDS011;8700;48.222;16.342;2023-05-10T08:18:33;9.23;;;8.63;;
17169;SDS011;8700;48.222;16.342;2023-05-10T08:21:55;9.13;;;8.32;;
17169;SDS011;8700;48.222;16.342;2023-05-10T08:25:16;7.30;;;6.70;;
17169;SDS011;8700;48.222;16.342;2023-05-10T08:28:38;8.10;;;7.38;;
17169;SDS011;8700;48.222;16.342;2023-05-10T08:31:59;7.38;;;6.50;;
17169;SDS011;8700;48.222;16.342;2023-05-10T08:35:22;8.30;;;6.50;;
17169;SDS011;8700;48.222;16.342;2023-05-10T08:38:44;7.57;;;6.97;;
17169;SDS011;8700;48.222;16.342;2023-05-10T08:42:05;7.07;;;6.47;;
17169;SDS011;8700;48.222;16.342;2023-05-10T08:45:28;8.30;;;7.60;;
17169;SDS011;8700;48.222;16.342;2023-05-10T08:48:56;7.78;;;6.97;;
17169;SDS011;8700;48.222;16.342;2023-05-10T08:52:22;9.40;;;7.55;;
17169;SDS011;8700;48.222;16.342;2023-05-10T08:55:46;7.43;;;6.35;;
17169;SDS011;8700;48.222;16.342;2023-05-10T08:59:07;7.63;;;7.00;;
17169;SDS011;8700;48.222;16.342;2023-05-10T09:02:31;7.13;;;5.60;;
17169;SDS011;8700;48.222;16.342;2023-05-10T09:05:52;5.38;;;4.88;;
17169;SDS011;8700;48.222;16.342;2023-05-10T09:09:16;9.50;;;6.28;;
17169;SDS011;8700;48.222;16.342;2023-05-10T09:12:38;8.23;;;7.28;;
17169;SDS011;8700;48.222;16.342;2023-05-10T09:15:59;5.85;;;5.05;;
17169;SDS011;8700;48.222;16.342;2023-05-10T09:19:21;5.82;;;5.10;;
17169;SDS011;8700;48.222;16.342;2023-05-10T09:22:43;5.78;;;5.38;;
17169;SDS011;8700;48.222;16.342;2023-05-10T09:26:06;8.75;;;5.28;;
17169;SDS011;8700;48.222;16.342;2023-05-10T09:29:38;6.03;;;5.07;;
17169;SDS011;8700;48.222;16.342;2023-05-10T09:32:59;5.75;;;4.55;;
17169;SDS011;8700;48.222;16.342;2023-05-10T09:36:22;6.13;;;4.22;;
17169;SDS011;8700;48.222;16.342;2023-05-10T09:39:43;4.20;;;3.83;;
17169;SDS011;8700;48.222;16.342;2023-05-10T09:43:07;8.23;;;7.28;;
17169;SDS011;8700;48.222;16.342;2023-05-10T09:46:30;4.13;;;3.83;;
17169;SDS011;8700;48.222;16.342;2023-05-10T09:49:56;3.13;;;2.90;;
17169;SDS011;8700;48.222;16.342;2023-05-10T09:53:22;3.83;;;3.63;;
17169;SDS011;8700;48.222;16.342;2023-05-10T09:56:44;3.00;;;2.90;;
17169;SDS011;8700;48.222;16.342;2023-05-10T10:00:07;5.75;;;3.08;;
17169;SDS011;8700;48.222;16.342;2023-05-10T10:03:30;3.42;;;3.13;;
17169;SDS011;8700;48.222;16.342;2023-05-10T10:07:01;2.88;;;2.67;;
17169;SDS011;8700;48.222;16.342;2023-05-10T10:10:23;2.65;;;2.30;;
17169;SDS011;8700;48.222;16.342;2023-05-10T10:13:45;2.70;;;2.50;;
17169;SDS011;8700;48.222;16.342;2023-05-10T10:17:07;7.40;;;2.95;;
17169;SDS011;8700;48.222;16.342;2023-05-10T10:20:30;2.92;;;2.72;;
17169;SDS011;8700;48.222;16.342;2023-05-10T10:23:51;4.70;;;2.60;;
17169;SDS011;8700;48.222;16.342;2023-05-10T10:27:15;2.88;;;2.67;;
17169;SDS011;8700;48.222;16.342;2023-05-10T10:30:45;3.03;;;2.83;;
17169;SDS011;8700;48.222;16.342;2023-05-10T10:34:11;4.03;;;2.92;;
17169;SDS011;8700;48.222;16.342;2023-05-10T10:37:43;4.30;;;3.25;;
17169;SDS011;8700;48.222;16.342;2023-05-10T10:41:09;3.67;;;3.38;;
17169;SDS011;8700;48.222;16.342;2023-05-10T10:44:47;4.80;;;3.35;;
17169;SDS011;8700;48.222;16.342;2023-05-10T10:48:21;3.95;;;3.65;;
17169;SDS011;8700;48.222;16.342;2023-05-10T10:52:12;4.60;;;3.58;;
17169;SDS011;8700;48.222;16.342;2023-05-10T10:55:47;3.38;;;3.17;;
17169;SDS011;8700;48.222;16.342;2023-05-10T10:59:09;3.88;;;2.90;;
17169;SDS011;8700;48.222;16.342;2023-05-10T11:02:33;6.38;;;3.30;;
17169;SDS011;8700;48.222;16.342;2023-05-10T11:06:03;3.35;;;3.00;;
17169;SDS011;8700;48.222;16.342;2023-05-10T11:09:26;6.47;;;3.22;;
17169;SDS011;8700;48.222;16.342;2023-05-10T11:12:51;3.80;;;3.50;;
17169;SDS011;8700;48.222;16.342;2023-05-10T11:16:16;3.80;;;3.50;;
17169;SDS011;8700;48.222;16.342;2023-05-10T11:19:38;4.68;;;4.35;;
17169;SDS011;8700;48.222;16.342;2023-05-10T11:23:29;3.40;;;3.20;;
17169;SDS011;8700;48.222;16.342;2023-05-10T11:26:53;3.53;;;3.33;;
17169;SDS011;8700;48.222;16.342;2023-05-10T11:30:18;5.38;;;4.97;;
17169;SDS011;8700;48.222;16.342;2023-05-10T11:33:42;3.25;;;2.80;;
17169;SDS011;8700;48.222;16.342;2023-05-10T11:37:04;3.25;;;3.05;;
17169;SDS011;8700;48.222;16.342;2023-05-10T11:40:25;3.83;;;3.63;;
17169;SDS011;8700;48.222;16.342;2023-05-10T11:43:51;4.13;;;3.60;;
17169;SDS011;8700;48.222;16.342;2023-05-10T11:47:13;5.35;;;3.78;;
17169;SDS011;8700;48.222;16.342;2023-05-10T11:50:35;3.90;;;3.63;;
17169;SDS011;8700;48.222;16.342;2023-05-10T11:53:56;3.60;;;3.40;;
17169;SDS011;8700;48.222;16.342;2023-05-10T11:57:18;4.07;;;3.88;;
17169;SDS011;8700;48.222;16.342;2023-05-10T12:00:44;5.05;;;4.07;;
17169;SDS011;8700;48.222;16.342;2023-05-10T12:04:06;4.03;;;3.63;;
17169;SDS011;8700;48.222;16.342;2023-05-10T12:07:28;6.50;;;3.60;;
17169;SDS011;8700;48.222;16.342;2023-05-10T12:10:49;3.45;;;3.25;;
17169;SDS011;8700;48.222;16.342;2023-05-10T12:14:11;4.05;;;3.55;;
17169;SDS011;8700;48.222;16.342;2023-05-10T12:17:34;3.47;;;3.15;;
17169;SDS011;8700;48.222;16.342;2023-05-10T12:21:02;3.92;;;3.72;;
17169;SDS011;8700;48.222;16.342;2023-05-10T12:24:24;4.20;;;3.88;;
17169;SDS011;8700;48.222;16.342;2023-05-10T12:27:49;3.70;;;3.50;;
17169;SDS011;8700;48.222;16.342;2023-05-10T12:31:11;4.15;;;3.72;;
17169;SDS011;8700;48.222;16.342;2023-05-10T12:34:34;3.58;;;3.38;;
17169;SDS011;8700;48.222;16.342;2023-05-10T12:37:58;4.10;;;3.45;;
17169;SDS011;8700;48.222;16.342;2023-05-10T12:41:19;5.50;;;4.00;;
17169;SDS011;8700;48.222;16.342;2023-05-10T12:44:40;3.33;;;3.13;;
17169;SDS011;8700;48.222;16.342;2023-05-10T12:48:02;3.65;;;3.45;;
17169;SDS011;8700;48.222;16.342;2023-05-10T12:51:25;4.55;;;4.15;;
17169;SDS011;8700;48.222;16.342;2023-05-10T12:54:46;4.22;;;3.90;;
17169;SDS011;8700;48.222;16.342;2023-05-10T12:58:07;5.03;;;4.63;;
17169;SDS011;8700;48.222;16.342;2023-05-10T13:01:28;4.80;;;4.50;;
17169;SDS011;8700;48.222;16.342;2023-05-10T13:04:50;5.38;;;4.88;;
17169;SDS011;8700;48.222;16.342;2023-05-10T13:08:12;4.68;;;4.38;;
17169;SDS011;8700;48.222;16.342;2023-05-10T13:11:34;7.45;;;4.88;;
17169;SDS011;8700;48.222;16.342;2023-05-10T13:14:55;6.50;;;5.63;;
17169;SDS011;8700;48.222;16.342;2023-05-10T13:18:17;5.20;;;4.90;;
17169;SDS011;8700;48.222;16.342;2023-05-10T13:21:38;4.75;;;4.45;;
17169;SDS011;8700;48.222;16.342;2023-05-10T13:25:01;4.63;;;4.32;;
17169;SDS011;8700;48.222;16.342;2023-05-10T13:28:23;5.30;;;5.00;;
17169;SDS011;8700;48.222;16.342;2023-05-10T13:31:45;6.40;;;5.90;;
17169;SDS011;8700;48.222;16.342;2023-05-10T13:35:07;5.85;;;5.45;;
17169;SDS011;8700;48.222;16.342;2023-05-10T13:38:29;6.13;;;5.55;;
17169;SDS011;8700;48.222;16.342;2023-05-10T13:41:51;6.05;;;5.55;;
17169;SDS011;8700;48.222;16.342;2023-05-10T13:45:13;5.78;;;5.35;;
17169;SDS011;8700;48.222;16.342;2023-05-10T13:48:34;5.70;;;5.40;;
17169;SDS011;8700;48.222;16.342;2023-05-10T13:51:56;6.30;;;5.68;;
17169;SDS011;8700;48.222;16.342;2023-05-10T13:55:17;4.82;;;4.47;;
17169;SDS011;8700;48.222;16.342;2023-05-10T13:58:40;5.47;;;5.15;;
17169;SDS011;8700;48.222;16.342;2023-05-10T14:02:01;5.80;;;5.32;;
17169;SDS011;8700;48.222;16.342;2023-05-10T14:05:23;6.10;;;5.30;;
17169;SDS011;8700;48.222;16.342;2023-05-10T14:08:44;5.05;;;4.75;;
17169;SDS011;8700;48.222;16.342;2023-05-10T14:12:06;4.95;;;4.55;;
17169;SDS011;8700;48.222;16.342;2023-05-10T14:15:29;5.10;;;4.80;;
17169;SDS011;8700;48.222;16.342;2023-05-10T14:18:50;5.53;;;5.22;;
17169;SDS011;8700;48.222;16.342;2023-05-10T14:22:11;4.85;;;4.55;;
17169;SDS011;8700;48.222;16.342;2023-05-10T14:25:33;7.35;;;5.00;;
17169;SDS011;8700;48.222;16.342;2023-05-10T14:28:54;4.32;;;4.13;;
17169;SDS011;8700;48.222;16.342;2023-05-10T14:32:17;5.38;;;4.88;;
17169;SDS011;8700;48.222;16.342;2023-05-10T14:35:39;5.47;;;4.97;;
17169;SDS011;8700;48.222;16.342;2023-05-10T14:39:00;7.35;;;5.47;;
17169;SDS011;8700;48.222;16.342;2023-05-10T14:42:22;6.63;;;5.20;;
17169;SDS011;8700;48.222;16.342;2023-05-10T14:45:43;4.40;;;4.20;;
17169;SDS011;8700;48.222;16.342;2023-05-10T14:49:07;5.30;;;5.00;;
17169;SDS011;8700;48.222;16.342;2023-05-10T14:52:29;5.63;;;4.35;;
17169;SDS011;8700;48.222;16.342;2023-05-10T14:55:51;4.97;;;4.60;;
17169;SDS011;8700;48.222;16.342;2023-05-10T14:59:12;4.20;;;4.00;;
17169;SDS011;8700;48.222;16.342;2023-05-10T15:02:33;4.30;;;4.00;;
17169;SDS011;8700;48.222;16.342;2023-05-10T15:05:56;4.10;;;3.80;;
17169;SDS011;8700;48.222;16.342;2023-05-10T15:09:18;3.58;;;3.38;;
17169;SDS011;8700;48.222;16.342;2023-05-10T15:12:39;3.72;;;3.60;;
17169;SDS011;8700;48.222;16.342;2023-05-10T15:16:01;4.97;;;4.68;;
17169;SDS011;8700;48.222;16.342;2023-05-10T15:19:22;3.80;;;3.60;;
17169;SDS011;8700;48.222;16.342;2023-05-10T15:22:45;3.88;;;3.53;;
17169;SDS011;8700;48.222;16.342;2023-05-10T15:26:06;3.63;;;3.42;;
17169;SDS011;8700;48.222;16.342;2023-05-10T15:29:28;3.60;;;3.35;;
17169;SDS011;8700;48.222;16.342;2023-05-10T15:32:50;3.50;;;3.20;;
17169;SDS011;8700;48.222;16.342;2023-05-10T15:36:12;3.40;;;3.20;;
17169;SDS011;8700;48.222;16.342;2023-05-10T15:39:37;4.85;;;3.80;;
17169;SDS011;8700;48.222;16.342;2023-05-10T15:42:58;4.13;;;3.83;;
17169;SDS011;8700;48.222;16.342;2023-05-10T15:46:19;4.30;;;4.10;;
17169;SDS011;8700;48.222;16.342;2023-05-10T15:49:41;4.50;;;4.10;;
17169;SDS011;8700;48.222;16.342;2023-05-10T15:53:02;4.47;;;4.07;;
17169;SDS011;8700;48.222;16.342;2023-05-10T15:56:24;4.90;;;4.55;;
17169;SDS011;8700;48.222;16.342;2023-05-10T15:59:46;5.13;;;4.80;;
17169;SDS011;8700;48.222;16.342;2023-05-10T16:03:07;5.03;;;4.63;;
17169;SDS011;8700;48.222;16.342;2023-05-10T16:06:29;4.57;;;4.38;;
17169;SDS011;8700;48.222;16.342;2023-05-10T16:09:51;4.47;;;4.07;;
17169;SDS011;8700;48.222;16.342;2023-05-10T16:13:13;4.88;;;3.72;;
17169;SDS011;8700;48.222;16.342;2023-05-10T16:16:35;4.35;;;4.03;;
17169;SDS011;8700;48.222;16.342;2023-05-10T16:19:56;5.43;;;4.93;;
17169;SDS011;8700;48.222;16.342;2023-05-10T16:23:17;6.35;;;5.28;;
17169;SDS011;8700;48.222;16.342;2023-05-10T16:26:39;4.90;;;4.60;;
17169;SDS011;8700;48.222;16.342;2023-05-10T16:30:02;5.57;;;5.13;;
17169;SDS011;8700;48.222;16.342;2023-05-10T16:33:24;5.25;;;4.78;;
17169;SDS011;8700;48.222;16.342;2023-05-10T16:36:45;4.82;;;4.30;;
17169;SDS011;8700;48.222;16.342;2023-05-10T16:40:07;6.07;;;5.32;;
17169;SDS011;8700;48.222;16.342;2023-05-10T16:43:29;5.95;;;4.50;;
17169;SDS011;8700;48.222;16.342;2023-05-10T16:46:53;5.13;;;4.68;;
17169;SDS011;8700;48.222;16.342;2023-05-10T16:50:14;5.70;;;5.20;;
17169;SDS011;8700;48.222;16.342;2023-05-10T16:53:36;4.97;;;4.68;;
17169;SDS011;8700;48.222;16.342;2023-05-10T16:56:58;5.60;;;4.63;;
17169;SDS011;8700;48.222;16.342;2023-05-10T17:00:20;5.80;;;5.47;;
17169;SDS011;8700;48.222;16.342;2023-05-10T17:03:43;5.13;;;4.57;;
17169;SDS011;8700;48.222;16.342;2023-05-10T17:07:05;5.35;;;5.05;;
17169;SDS011;8700;48.222;16.342;2023-05-10T17:10:26;6.63;;;6.05;;
17169;SDS011;8700;48.222;16.342;2023-05-10T17:13:48;4.72;;;4.53;;
17169;SDS011;8700;48.222;16.342;2023-05-10T17:17:10;5.55;;;5.22;;
17169;SDS011;8700;48.222;16.342;2023-05-10T17:20:33;5.75;;;5.35;;
17169;SDS011;8700;48.222;16.342;2023-05-10T17:23:55;5.85;;;5.45;;
17169;SDS011;8700;48.222;16.342;2023-05-10T17:27:16;5.25;;;4.85;;
17169;SDS011;8700;48.222;16.342;2023-05-10T17:30:38;6.63;;;6.22;;
17169;SDS011;8700;48.222;16.342;2023-05-10T17:34:00;6.03;;;5.28;;
17169;SDS011;8700;48.222;16.342;2023-05-10T17:37:25;6.50;;;5.95;;
17169;SDS011;8700;48.222;16.342;2023-05-10T17:40:46;4.88;;;4.57;;
17169;SDS011;8700;48.222;16.342;2023-05-10T17:44:07;6.43;;;5.82;;
17169;SDS011;8700;48.222;16.342;2023-05-10T17:47:29;5.53;;;5.13;;
17169;SDS011;8700;48.222;16.342;2023-05-10T17:50:50;5.50;;;5.03;;
17169;SDS011;8700;48.222;16.342;2023-05-10T17:54:13;5.80;;;5.40;;
17169;SDS011;8700;48.222;16.342;2023-05-10T17:57:35;5.43;;;5.00;;
17169;SDS011;8700;48.222;16.342;2023-05-10T18:00:57;6.30;;;5.68;;
17169;SDS011;8700;48.222;16.342;2023-05-10T18:04:19;4.80;;;4.53;;
17169;SDS011;8700;48.222;16.342;2023-05-10T18:07:40;7.97;;;5.07;;
17169;SDS011;8700;48.222;16.342;2023-05-10T18:11:03;6.95;;;5.25;;
17169;SDS011;8700;48.222;16.342;2023-05-10T18:14:24;5.78;;;5.32;;
17169;SDS011;8700;48.222;16.342;2023-05-10T18:17:48;6.75;;;5.57;;
17169;SDS011;8700;48.222;16.342;2023-05-10T18:21:09;5.28;;;4.93;;
17169;SDS011;8700;48.222;16.342;2023-05-10T18:24:31;5.53;;;5.00;;
17169;SDS011;8700;48.222;16.342;2023-05-10T18:27:54;6.18;;;5.07;;
17169;SDS011;8700;48.222;16.342;2023-05-10T18:31:15;6.03;;;5.53;;
17169;SDS011;8700;48.222;16.342;2023-05-10T18:34:37;5.40;;;5.10;;
17169;SDS011;8700;48.222;16.342;2023-05-10T18:37:59;5.72;;;5.32;;
17169;SDS011;8700;48.222;16.342;2023-05-10T18:41:21;5.68;;;5.30;;
17169;SDS011;8700;48.222;16.342;2023-05-10T18:44:46;5.55;;;5.15;;
17169;SDS011;8700;48.222;16.342;2023-05-10T18:48:08;5.25;;;4.85;;
17169;SDS011;8700;48.222;16.342;2023-05-10T18:51:29;6.40;;;5.80;;
17169;SDS011;8700;48.222;16.342;2023-05-10T18:54:51;5.93;;;5.47;;
17169;SDS011;8700;48.222;16.342;2023-05-10T18:58:12;6.07;;;5.60;;
17169;SDS011;8700;48.222;16.342;2023-05-10T19:01:35;34.63;;;31.20;;
17169;SDS011;8700;48.222;16.342;2023-05-10T19:04:57;5.38;;;5.07;;
17169;SDS011;8700;48.222;16.342;2023-05-10T19:08:18;5.90;;;5.10;;
17169;SDS011;8700;48.222;16.342;2023-05-10T19:11:39;5.28;;;4.68;;
17169;SDS011;8700;48.222;16.342;2023-05-10T19:15:02;7.95;;;5.95;;
17169;SDS011;8700;48.222;16.342;2023-05-10T19:18:24;6.80;;;6.40;;
17169;SDS011;8700;48.222;16.342;2023-05-10T19:21:46;6.63;;;5.30;;
17169;SDS011;8700;48.222;16.342;2023-05-10T19:25:07;6.63;;;6.13;;
17169;SDS011;8700;48.222;16.342;2023-05-10T19:28:29;5.93;;;5.32;;
17169;SDS011;8700;48.222;16.342;2023-05-10T19:31:51;5.72;;;5.28;;
17169;SDS011;8700;48.222;16.342;2023-05-10T19:35:14;5.55;;;5.05;;
17169;SDS011;8700;48.222;16.342;2023-05-10T19:38:35;5.60;;;5.10;;
17169;SDS011;8700;48.222;16.342;2023-05-10T19:41:57;5.78;;;5.38;;
17169;SDS011;8700;48.222;16.342;2023-05-10T19:45:19;6.20;;;5.70;;
17169;SDS011;8700;48.222;16.342;2023-05-10T19:48:41;5.53;;;5.20;;
17169;SDS011;8700;48.222;16.342;2023-05-10T19:52:04;5.38;;;4.82;;
17169;SDS011;8700;48.222;16.342;2023-05-10T19:55:26;6.20;;;5.80;;
17169;SDS011;8700;48.222;16.342;2023-05-10T19:58:48;5.82;;;5.32;;
17169;SDS011;8700;48.222;16.342;2023-05-10T20:02:12;5.90;;;5.50;;
17169;SDS011;8700;48.222;16.342;2023-05-10T20:05:33;7.68;;;7.20;;
17169;SDS011;8700;48.222;16.342;2023-05-10T20:08:56;5.40;;;5.03;;
17169;SDS011;8700;48.222;16.342;2023-05-10T20:12:17;6.28;;;5.85;;
17169;SDS011;8700;48.222;16.342;2023-05-10T20:15:38;5.97;;;5.57;;
17169;SDS011;8700;48.222;16.342;2023-05-10T20:19:00;6.07;;;5.53;;
17169;SDS011;8700;48.222;16.342;2023-05-10T20:22:23;6.93;;;6.32;;
17169;SDS011;8700;48.222;16.342;2023-05-10T20:25:46;5.78;;;5.20;;